createdAt,value
2023-03-07T00:02:08.814Z,83.55
2023-03-07T00:04:47.153Z,83.12
2023-03-07T00:07:20.348Z,83.09
2023-03-07T00:09:53.318Z,82.81
2023-03-07T00:12:27.553Z,83.34
2023-03-07T00:15:00.931Z,83.17
2023-03-07T00:17:36.464Z,83.12
2023-03-07T00:20:14.424Z,83.10
2023-03-07T00:22:47.316Z,83.88
2023-03-07T00:25:20.357Z,83.64
2023-03-07T00:27:53.372Z,83.47
2023-03-07T00:30:26.472Z,83.13
2023-03-07T00:32:59.752Z,83.67
2023-03-07T00:35:34.206Z,83.53
2023-03-07T00:38:07.149Z,83.51
2023-03-07T00:40:40.229Z,84.72
2023-03-07T00:43:13.219Z,84.28
2023-03-07T00:45:46.474Z,84.62
2023-03-07T00:48:21.249Z,84.43
2023-03-07T00:50:57.479Z,85.10
2023-03-07T00:53:30.763Z,85.95
2023-03-07T00:56:06.698Z,85.60
2023-03-07T00:58:39.825Z,86.82
2023-03-07T01:01:13.969Z,86.49
2023-03-07T01:03:49.702Z,87.48
2023-03-07T01:06:24.870Z,87.13
2023-03-07T01:08:58.842Z,87.44
2023-03-07T01:11:32.776Z,88.15
2023-03-07T01:14:07.675Z,88.42
2023-03-07T01:16:41.231Z,88.94
2023-03-07T01:19:14.517Z,88.40
2023-03-07T01:21:48.984Z,89.16
2023-03-07T01:24:22.014Z,89.75
2023-03-07T01:26:55.224Z,89.26
2023-03-07T01:29:28.649Z,89.54
2023-03-07T01:32:01.978Z,89.00
2023-03-07T01:34:34.967Z,88.94
2023-03-07T01:37:09.360Z,88.14
2023-03-07T01:39:43.110Z,88.07
2023-03-07T01:42:16.175Z,87.92
2023-03-07T01:45:00.042Z,87.82
2023-03-07T01:47:33.120Z,86.58
2023-03-07T01:50:09.075Z,86.15
2023-03-07T01:52:46.897Z,84.90
2023-03-07T01:55:20.872Z,84.08
2023-03-07T01:57:55.554Z,82.50
2023-03-07T02:00:29.956Z,82.27
2023-03-07T02:03:06.019Z,81.91
2023-03-07T02:05:41.071Z,82.50
2023-03-07T02:08:16.150Z,82.27
2023-03-07T02:10:49.744Z,81.80
2023-03-07T02:13:23.436Z,82.09
2023-03-07T02:15:56.957Z,83.62
2023-03-07T02:18:33.181Z,81.40
2023-03-07T02:21:12.291Z,80.83
2023-03-07T02:23:49.066Z,81.92
2023-03-07T02:26:24.134Z,81.74
2023-03-07T02:28:59.115Z,81.59
2023-03-07T02:31:32.366Z,81.36
2023-03-07T02:34:05.422Z,81.28
2023-03-07T02:36:38.459Z,81.93
2023-03-07T02:39:11.691Z,81.35
2023-03-07T02:41:44.973Z,81.23
2023-03-07T02:44:19.780Z,80.87
2023-03-07T02:46:52.957Z,81.17
2023-03-07T02:49:25.861Z,81.20
2023-03-07T02:52:00.766Z,81.46
2023-03-07T02:54:33.913Z,81.17
2023-03-07T02:57:06.988Z,81.64
2023-03-07T02:59:41.531Z,81.16
2023-03-07T03:02:14.788Z,81.19
2023-03-07T03:04:47.913Z,81.15
2023-03-07T03:07:21.247Z,81.20
2023-03-07T03:09:54.488Z,80.91
2023-03-07T03:12:28.124Z,81.00
2023-03-07T03:15:03.266Z,80.98
2023-03-07T03:17:37.201Z,80.53
2023-03-07T03:20:13.015Z,80.11
2023-03-07T03:22:46.099Z,80.85
2023-03-07T03:25:22.609Z,81.15
2023-03-07T03:27:55.821Z,80.61
2023-03-07T03:30:36.031Z,80.72
2023-03-07T03:33:09.027Z,81.60
2023-03-07T03:35:43.645Z,81.88
2023-03-07T03:38:16.617Z,81.70
2023-03-07T03:40:49.993Z,82.32
2023-03-07T03:43:23.120Z,82.30
2023-03-07T03:45:57.718Z,82.04
2023-03-07T03:48:31.073Z,81.99
2023-03-07T03:51:05.072Z,81.81
2023-03-07T03:53:39.166Z,82.93
2023-03-07T03:56:13.558Z,82.48
2023-03-07T03:58:48.031Z,82.96
2023-03-07T04:01:23.092Z,82.67
2023-03-07T04:03:56.190Z,82.60
2023-03-07T04:06:30.445Z,83.02
2023-03-07T04:09:05.505Z,84.05
2023-03-07T04:11:38.690Z,84.19
2023-03-07T04:14:12.189Z,83.66
2023-03-07T04:16:47.707Z,83.77
2023-03-07T04:19:22.144Z,84.21
2023-03-07T04:21:55.048Z,84.44
2023-03-07T04:24:28.588Z,85.23
2023-03-07T04:27:01.654Z,85.15
2023-03-07T04:29:34.555Z,84.74
2023-03-07T04:32:08.939Z,85.73
2023-03-07T04:34:41.982Z,86.01
2023-03-07T04:37:14.966Z,86.44
2023-03-07T04:39:48.309Z,86.60
2023-03-07T04:42:21.665Z,87.05
2023-03-07T04:44:54.681Z,88.16
2023-03-07T04:47:29.200Z,88.02
2023-03-07T04:50:02.109Z,87.46
2023-03-07T04:52:35.278Z,88.32
2023-03-07T04:55:08.693Z,89.23
2023-03-07T04:57:42.271Z,88.58
2023-03-07T05:00:16.496Z,88.91
2023-03-07T05:02:51.949Z,89.66
2023-03-07T05:05:25.547Z,89.91
2023-03-07T05:07:59.724Z,90.36
2023-03-07T05:10:33.455Z,90.15
2023-03-07T05:13:07.758Z,89.76
2023-03-07T05:15:41.259Z,90.09
2023-03-07T05:18:15.582Z,89.43
2023-03-07T05:20:48.660Z,89.15
2023-03-07T05:23:21.830Z,88.59
2023-03-07T05:25:55.100Z,90.43
2023-03-07T05:28:28.037Z,89.36
2023-03-07T05:31:01.023Z,88.73
2023-03-07T05:33:35.305Z,88.21
2023-03-07T05:36:08.531Z,86.76
2023-03-07T05:38:41.798Z,87.50
2023-03-07T05:41:15.197Z,87.42
2023-03-07T05:43:48.126Z,87.28
2023-03-07T05:46:21.297Z,87.17
2023-03-07T05:48:55.898Z,86.40
2023-03-07T05:51:28.896Z,87.21
2023-03-07T05:54:01.969Z,86.26
2023-03-07T05:56:35.585Z,86.67
2023-03-07T05:59:11.257Z,86.48
2023-03-07T06:01:44.472Z,86.67
2023-03-07T06:04:18.790Z,87.48
2023-03-07T06:06:51.663Z,87.19
2023-03-07T06:09:26.008Z,86.24
2023-03-07T06:11:59.049Z,85.99
2023-03-07T06:14:32.172Z,86.64
2023-03-07T06:17:05.754Z,86.21
2023-03-07T06:19:40.080Z,86.37
2023-03-07T06:22:13.287Z,86.15
2023-03-07T06:24:46.521Z,86.01
2023-03-07T06:27:19.563Z,86.94
2023-03-07T06:29:52.579Z,86.60
2023-03-07T06:32:25.548Z,86.65
2023-03-07T06:34:59.928Z,86.04
2023-03-07T06:37:32.877Z,87.08
2023-03-07T06:40:06.736Z,86.40
2023-03-07T06:42:40.157Z,86.74
2023-03-07T06:45:13.079Z,87.40
2023-03-07T06:47:46.058Z,86.76
2023-03-07T06:50:26.629Z,86.38
2023-03-07T06:53:07.610Z,86.53
2023-03-07T06:55:40.624Z,87.00
2023-03-07T06:58:13.801Z,86.47
2023-03-07T07:00:47.118Z,85.97
2023-03-07T07:03:20.894Z,85.76
2023-03-07T07:05:55.842Z,85.78
2023-03-07T07:08:28.920Z,85.51
2023-03-07T07:11:02.040Z,86.29
2023-03-07T07:13:35.567Z,86.02
2023-03-07T07:16:09.710Z,85.77
2023-03-07T07:18:43.068Z,84.64
2023-03-07T07:21:17.664Z,84.01
2023-03-07T07:24:01.141Z,84.01
2023-03-07T07:26:34.241Z,83.67
2023-03-07T07:29:07.305Z,83.29
2023-03-07T07:31:40.858Z,83.20
2023-03-07T07:34:14.108Z,83.03
2023-03-07T07:36:48.385Z,83.37
2023-03-07T07:39:21.854Z,83.11
2023-03-07T07:41:54.903Z,83.11
2023-03-07T07:44:29.887Z,83.69
2023-03-07T07:47:03.072Z,83.25
2023-03-07T07:49:36.077Z,83.13
2023-03-07T07:52:10.546Z,82.92
2023-03-07T07:54:43.773Z,82.61
2023-03-07T07:57:20.877Z,82.33
2023-03-07T07:59:55.451Z,82.64
2023-03-07T08:02:28.896Z,82.14
2023-03-07T08:05:01.923Z,82.68
2023-03-07T08:07:36.658Z,83.81
2023-03-07T08:10:10.606Z,83.85
2023-03-07T08:12:45.149Z,83.38
2023-03-07T08:15:19.431Z,83.21
2023-03-07T08:17:53.179Z,82.72
2023-03-07T08:20:26.331Z,82.42
2023-03-07T08:23:00.813Z,82.74
2023-03-07T08:25:34.237Z,82.36
2023-03-07T08:28:07.689Z,82.14
2023-03-07T08:30:41.088Z,82.01
2023-03-07T08:33:14.311Z,82.38
2023-03-07T08:35:47.187Z,81.60
2023-03-07T08:38:22.734Z,81.40
2023-03-07T08:40:56.056Z,82.06
2023-03-07T08:43:29.504Z,81.96
2023-03-07T08:46:03.307Z,82.13
2023-03-07T08:48:36.346Z,81.43
2023-03-07T08:51:10.352Z,81.46
2023-03-07T08:53:44.856Z,80.89
2023-03-07T08:56:19.430Z,80.56
2023-03-07T08:58:53.587Z,80.30
2023-03-07T09:01:26.678Z,79.66
2023-03-07T09:03:59.770Z,79.21
2023-03-07T09:06:33.222Z,79.65
2023-03-07T09:09:07.745Z,78.46
2023-03-07T09:11:40.993Z,77.87
2023-03-07T09:14:15.240Z,78.22
2023-03-07T09:16:48.554Z,77.49
2023-03-07T09:19:23.736Z,77.57
2023-03-07T09:21:56.802Z,77.03
2023-03-07T09:24:31.730Z,76.62
2023-03-07T09:27:05.647Z,75.67
2023-03-07T09:29:38.789Z,75.19
2023-03-07T09:32:11.862Z,75.44
2023-03-07T09:34:44.897Z,76.42
2023-03-07T09:37:18.898Z,74.74
2023-03-07T09:39:53.430Z,75.63
2023-03-07T09:42:29.039Z,74.84
2023-03-07T09:45:10.279Z,74.84
2023-03-07T09:47:59.728Z,74.81
2023-03-07T09:50:40.634Z,74.72
2023-03-07T09:53:19.661Z,74.35
2023-03-07T09:55:58.539Z,73.91
2023-03-07T09:58:31.694Z,73.70
2023-03-07T10:01:07.443Z,72.54
2023-03-07T10:03:43.060Z,72.54
2023-03-07T10:06:21.053Z,72.14
2023-03-07T10:08:55.218Z,72.89
2023-03-07T10:11:41.883Z,71.26
2023-03-07T10:14:25.231Z,69.32
2023-03-07T10:17:03.673Z,67.83
2023-03-07T10:19:42.022Z,67.51
2023-03-07T10:22:19.809Z,67.30
2023-03-07T10:24:59.361Z,66.72
2023-03-07T10:27:34.007Z,65.72
2023-03-07T10:30:11.794Z,65.02
2023-03-07T10:32:46.337Z,64.15
2023-03-07T10:35:24.450Z,64.84
2023-03-07T10:37:59.142Z,64.76
2023-03-07T10:40:34.570Z,62.75
2023-03-07T10:43:18.107Z,62.61
2023-03-07T10:45:53.862Z,62.10
2023-03-07T10:48:27.673Z,63.05
2023-03-07T10:51:06.803Z,60.34
2023-03-07T10:53:40.545Z,61.96
2023-03-07T10:56:15.040Z,62.70
2023-03-07T10:59:09.562Z,62.79
2023-03-07T11:01:55.830Z,61.76
2023-03-07T11:04:29.779Z,63.87
2023-03-07T11:07:03.563Z,61.80
2023-03-07T11:09:47.598Z,62.72
2023-03-07T11:12:21.953Z,60.03
2023-03-07T11:14:58.120Z,60.01
2023-03-07T11:17:41.986Z,61.52
2023-03-07T11:20:22.276Z,60.93
2023-03-07T11:23:13.654Z,58.96
2023-03-07T11:25:47.494Z,59.80
2023-03-07T11:28:26.573Z,61.28
2023-03-07T11:31:06.079Z,63.37
2023-03-07T11:33:58.673Z,66.33
2023-03-07T11:36:33.852Z,66.65
2023-03-07T11:39:12.154Z,65.97
2023-03-07T11:41:47.494Z,66.40
2023-03-07T11:44:28.290Z,66.37
2023-03-07T11:47:22.944Z,67.15
2023-03-07T11:50:05.561Z,65.89
2023-03-07T11:52:49.478Z,67.86
2023-03-07T11:55:27.263Z,67.67
2023-03-07T11:58:06.607Z,67.00
2023-03-07T12:00:49.751Z,66.98
2023-03-07T12:03:33.883Z,66.76
2023-03-07T12:06:16.647Z,67.59
2023-03-07T12:08:58.272Z,67.61
2023-03-07T12:11:43.453Z,66.81
2023-03-07T12:14:22.167Z,65.93
2023-03-07T12:17:02.223Z,64.72
2023-03-07T12:19:42.385Z,63.71
2023-03-07T12:22:33.252Z,61.32
2023-03-07T12:25:18.725Z,61.68
2023-03-07T12:27:56.725Z,63.46
2023-03-07T12:30:35.256Z,59.99
2023-03-07T12:33:14.177Z,60.27
2023-03-07T12:35:50.097Z,59.07
2023-03-07T12:38:27.494Z,60.90
2023-03-07T12:41:04.811Z,61.04
2023-03-07T12:43:40.522Z,57.02
2023-03-07T12:46:16.613Z,57.42
2023-03-07T12:48:53.306Z,56.83
2023-03-07T12:51:28.089Z,57.79
2023-03-07T12:54:06.048Z,59.19
2023-03-07T12:56:46.126Z,61.90
2023-03-07T12:59:20.473Z,62.83
2023-03-07T13:01:55.645Z,59.53
2023-03-07T13:04:32.097Z,58.63
2023-03-07T13:07:09.047Z,59.81
2023-03-07T13:09:43.160Z,58.80
2023-03-07T13:12:32.810Z,58.44
2023-03-07T13:15:08.377Z,56.77
2023-03-07T13:17:59.648Z,57.82
2023-03-07T13:20:40.621Z,56.02
2023-03-07T13:23:22.524Z,56.83
2023-03-07T13:26:06.585Z,58.72
2023-03-07T13:28:42.768Z,58.39
2023-03-07T13:31:36.906Z,60.22
2023-03-07T13:34:40.443Z,60.87
2023-03-07T13:37:32.024Z,60.09
2023-03-07T13:40:22.372Z,56.43
2023-03-07T13:42:58.624Z,56.91
2023-03-07T13:45:53.809Z,56.44
2023-03-07T13:48:58.018Z,61.16
2023-03-07T13:51:31.138Z,60.26
2023-03-07T13:54:05.777Z,60.32
2023-03-07T13:56:41.811Z,59.66
2023-03-07T13:59:21.466Z,59.48
2023-03-07T14:02:12.809Z,60.14
2023-03-07T14:04:51.862Z,58.29
2023-03-07T14:07:25.950Z,59.26
2023-03-07T14:10:03.840Z,62.04
2023-03-07T14:12:55.306Z,59.59
2023-03-07T14:15:30.659Z,62.43
2023-03-07T14:18:13.870Z,61.55
2023-03-07T14:20:51.334Z,62.86
2023-03-07T14:23:36.378Z,62.25
2023-03-07T14:26:13.149Z,61.97
2023-03-07T14:28:49.479Z,59.95
2023-03-07T14:31:25.626Z,60.58
2023-03-07T14:34:00.215Z,59.42
2023-03-07T14:36:33.594Z,58.67
2023-03-07T14:39:07.396Z,59.87
2023-03-07T14:41:46.140Z,61.44
2023-03-07T14:44:34.320Z,61.19
2023-03-07T14:47:15.402Z,60.40
2023-03-07T14:49:53.245Z,60.36
2023-03-07T14:52:31.390Z,60.85
2023-03-07T14:55:06.118Z,61.79
2023-03-07T14:57:40.625Z,62.61
2023-03-07T15:00:23.411Z,60.34
2023-03-07T15:02:58.290Z,60.43
2023-03-07T15:05:33.777Z,59.50
2023-03-07T15:08:18.255Z,61.25
2023-03-07T15:10:53.332Z,60.92
2023-03-07T15:13:29.804Z,61.06
2023-03-07T15:16:04.936Z,60.82
2023-03-07T15:18:41.752Z,61.66
2023-03-07T15:21:19.000Z,60.07
2023-03-07T15:23:53.950Z,62.31
2023-03-07T15:26:28.000Z,61.49
2023-03-07T15:29:01.693Z,61.68
2023-03-07T15:31:50.353Z,63.10
2023-03-07T15:34:24.888Z,63.70
2023-03-07T15:37:12.606Z,64.06
2023-03-07T15:39:55.144Z,62.86
2023-03-07T15:42:28.219Z,62.50
2023-03-07T15:45:01.920Z,63.31
2023-03-07T15:47:35.408Z,63.34
2023-03-07T15:50:21.598Z,62.93
2023-03-07T15:52:55.476Z,64.17
2023-03-07T15:55:30.035Z,63.44
2023-03-07T15:58:04.575Z,64.55
2023-03-07T16:00:39.576Z,63.63
2023-03-07T16:03:22.567Z,64.15
2023-03-07T16:05:56.414Z,64.55
2023-03-07T16:08:29.800Z,64.36
2023-03-07T16:11:06.094Z,64.52
2023-03-07T16:13:41.792Z,65.68
2023-03-07T16:16:18.430Z,64.37
2023-03-07T16:18:52.039Z,65.13
2023-03-07T16:21:25.946Z,65.07
2023-03-07T16:23:59.367Z,66.64
2023-03-07T16:26:34.118Z,65.01
2023-03-07T16:29:08.906Z,67.34
2023-03-07T16:31:42.224Z,65.80
2023-03-07T16:34:17.308Z,65.36
2023-03-07T16:36:50.523Z,67.67
2023-03-07T16:39:23.778Z,66.48
2023-03-07T16:41:58.352Z,67.36
2023-03-07T16:44:31.289Z,66.93
2023-03-07T16:47:05.610Z,67.19
2023-03-07T16:49:38.902Z,67.67
2023-03-07T16:52:13.066Z,68.17
2023-03-07T16:54:45.912Z,68.52
2023-03-07T16:57:20.285Z,68.31
2023-03-07T16:59:53.512Z,68.31
2023-03-07T17:02:27.341Z,68.57
2023-03-07T17:05:00.790Z,68.79
2023-03-07T17:07:33.812Z,68.75
2023-03-07T17:10:06.823Z,69.35
2023-03-07T17:12:42.674Z,68.95
2023-03-07T17:15:17.180Z,70.21
2023-03-07T17:17:50.577Z,70.36
2023-03-07T17:20:23.900Z,70.17
2023-03-07T17:22:57.055Z,70.98
2023-03-07T17:25:30.078Z,70.56
2023-03-07T17:28:06.948Z,71.10
2023-03-07T17:30:42.963Z,70.90
2023-03-07T17:33:16.767Z,70.69
2023-03-07T17:35:49.829Z,71.02
2023-03-07T17:38:22.720Z,71.39
2023-03-07T17:40:56.113Z,71.46
2023-03-07T17:43:30.643Z,73.05
2023-03-07T17:46:08.480Z,72.32
2023-03-07T17:48:41.470Z,71.91
2023-03-07T17:51:14.359Z,72.63
2023-03-07T17:53:47.233Z,72.94
2023-03-07T17:56:20.169Z,72.43
2023-03-07T17:58:54.453Z,73.26
2023-03-07T18:01:27.509Z,73.56
2023-03-07T18:04:01.285Z,73.44
2023-03-07T18:06:36.738Z,73.61
2023-03-07T18:09:09.701Z,74.02
2023-03-07T18:11:43.082Z,73.67
2023-03-07T18:14:17.811Z,74.07
2023-03-07T18:16:51.350Z,74.36
2023-03-07T18:19:26.975Z,74.36
2023-03-07T18:22:00.873Z,74.25
2023-03-07T18:24:33.944Z,74.62
2023-03-07T18:27:08.729Z,74.98
2023-03-07T18:29:43.061Z,75.11
2023-03-07T18:32:16.358Z,75.47
2023-03-07T18:34:49.677Z,75.71
2023-03-07T18:37:22.709Z,75.91
2023-03-07T18:39:55.606Z,76.43
2023-03-07T18:42:28.801Z,76.67
2023-03-07T18:45:03.266Z,76.76
2023-03-07T18:47:36.528Z,76.79
2023-03-07T18:50:11.116Z,76.93
2023-03-07T18:52:44.476Z,77.35
2023-03-07T18:55:17.904Z,77.29
2023-03-07T18:57:51.239Z,77.39
2023-03-07T19:00:25.934Z,77.59
2023-03-07T19:02:59.130Z,78.31
2023-03-07T19:05:32.229Z,78.36
2023-03-07T19:08:05.099Z,78.61
2023-03-07T19:10:38.189Z,78.85
2023-03-07T19:13:12.773Z,78.95
2023-03-07T19:15:47.530Z,79.27
2023-03-07T19:18:21.200Z,79.82
2023-03-07T19:20:54.666Z,79.98
2023-03-07T19:23:27.955Z,80.18
2023-03-07T19:26:02.065Z,80.43
2023-03-07T19:28:35.109Z,80.57
2023-03-07T19:31:10.263Z,80.58
2023-03-07T19:33:43.932Z,80.91
2023-03-07T19:36:20.218Z,81.15
2023-03-07T19:38:54.713Z,81.35
2023-03-07T19:41:28.358Z,81.52
2023-03-07T19:44:01.859Z,81.72
2023-03-07T19:46:36.670Z,81.80
2023-03-07T19:49:09.894Z,82.30
2023-03-07T19:51:42.954Z,82.29
2023-03-07T19:54:16.457Z,82.52
2023-03-07T19:56:49.440Z,82.91
2023-03-07T19:59:22.339Z,83.32
2023-03-07T20:01:57.145Z,83.41
2023-03-07T20:04:30.491Z,83.07
2023-03-07T20:07:03.664Z,83.10
2023-03-07T20:09:36.753Z,83.48
2023-03-07T20:12:10.962Z,83.32
2023-03-07T20:14:44.675Z,83.81
2023-03-07T20:17:19.330Z,83.96
2023-03-07T20:19:53.068Z,84.09
2023-03-07T20:22:25.994Z,83.78
2023-03-07T20:24:59.092Z,84.01
2023-03-07T20:27:32.160Z,83.72
2023-03-07T20:30:06.383Z,83.95
2023-03-07T20:32:41.928Z,84.80
2023-03-07T20:35:15.104Z,84.25
2023-03-07T20:37:48.711Z,84.43
2023-03-07T20:40:21.954Z,84.65
2023-03-07T20:42:55.025Z,84.64
2023-03-07T20:45:27.996Z,84.98
2023-03-07T20:48:02.727Z,84.70
2023-03-07T20:50:35.816Z,85.03
2023-03-07T20:53:08.996Z,84.67
2023-03-07T20:55:42.916Z,84.65
2023-03-07T20:58:16.142Z,84.79
2023-03-07T21:00:53.526Z,84.73
2023-03-07T21:03:28.325Z,84.86
2023-03-07T21:06:01.951Z,84.94
2023-03-07T21:08:36.514Z,85.32
2023-03-07T21:11:10.932Z,84.71
2023-03-07T21:13:45.697Z,84.80
2023-03-07T21:16:20.894Z,84.93
2023-03-07T21:18:57.942Z,84.93
2023-03-07T21:21:32.741Z,84.80
2023-03-07T21:24:06.577Z,85.04
2023-03-07T21:26:39.615Z,84.89
2023-03-07T21:29:14.041Z,84.87
2023-03-07T21:31:47.142Z,85.16
2023-03-07T21:34:21.645Z,84.76
2023-03-07T21:36:56.257Z,84.90
2023-03-07T21:39:30.123Z,85.10
2023-03-07T21:42:03.225Z,84.64
2023-03-07T21:44:36.595Z,84.47
2023-03-07T21:47:09.517Z,85.56
2023-03-07T21:49:44.121Z,85.50
2023-03-07T21:52:17.482Z,84.49
2023-03-07T21:54:50.373Z,85.27
2023-03-07T21:57:23.328Z,84.41
2023-03-07T21:59:56.554Z,84.56
2023-03-07T22:02:29.613Z,84.08
2023-03-07T22:05:04.927Z,83.24
2023-03-07T22:07:38.062Z,83.82
2023-03-07T22:10:11.567Z,83.69
2023-03-07T22:12:45.207Z,83.81
2023-03-07T22:15:18.944Z,84.29
2023-03-07T22:17:51.945Z,84.23
2023-03-07T22:20:26.558Z,85.20
2023-03-07T22:22:59.632Z,84.97
2023-03-07T22:25:32.777Z,85.28
2023-03-07T22:28:05.922Z,85.54
2023-03-07T22:30:38.955Z,85.97
2023-03-07T22:33:12.267Z,86.28
2023-03-07T22:35:46.544Z,86.21
2023-03-07T22:38:20.852Z,85.88
2023-03-07T22:40:54.029Z,86.88
2023-03-07T22:43:27.177Z,86.47
2023-03-07T22:46:00.612Z,86.38
2023-03-07T22:48:34.198Z,86.43
2023-03-07T22:51:12.259Z,87.52
2023-03-07T22:53:45.240Z,87.47
2023-03-07T22:56:19.350Z,87.79
2023-03-07T22:58:52.570Z,88.00
2023-03-07T23:01:27.100Z,88.17
2023-03-07T23:04:00.921Z,88.54
2023-03-07T23:06:36.331Z,88.51
2023-03-07T23:09:09.738Z,88.83
2023-03-07T23:11:45.056Z,89.06
2023-03-07T23:14:18.878Z,88.93
2023-03-07T23:16:52.207Z,88.97
2023-03-07T23:19:25.479Z,89.78
2023-03-07T23:21:59.719Z,89.85
2023-03-07T23:24:33.051Z,89.34
2023-03-07T23:27:06.063Z,89.08
2023-03-07T23:29:39.389Z,89.65
2023-03-07T23:32:12.659Z,89.44
2023-03-07T23:34:46.185Z,91.39
2023-03-07T23:37:20.515Z,90.73
2023-03-07T23:39:53.769Z,91.03
2023-03-07T23:42:26.963Z,90.25
2023-03-07T23:45:00.084Z,90.13
2023-03-07T23:47:34.287Z,90.65
2023-03-07T23:50:08.304Z,91.21
2023-03-07T23:52:42.982Z,91.20
2023-03-07T23:55:16.574Z,91.35
2023-03-07T23:57:49.698Z,90.88
